createdAt,value
2022-09-27T00:01:55.483Z,100308.81
2022-09-27T00:04:00.754Z,100307.00
2022-09-27T00:06:07.971Z,100303.53
2022-09-27T00:08:11.684Z,100306.25
2022-09-27T00:10:16.437Z,100317.84
2022-09-27T00:12:20.194Z,100313.50
2022-09-27T00:14:25.394Z,100312.66
2022-09-27T00:16:31.617Z,100312.66
2022-09-27T00:18:35.445Z,100323.25
2022-09-27T00:20:39.323Z,100317.97
2022-09-27T00:22:43.050Z,100315.38
2022-09-27T00:24:46.740Z,100302.25
2022-09-27T00:26:50.963Z,100306.72
2022-09-27T00:28:55.130Z,100309.50
2022-09-27T00:31:00.631Z,100302.50
2022-09-27T00:33:04.703Z,100306.09
2022-09-27T00:35:08.932Z,100306.09
2022-09-27T00:37:13.636Z,100306.09
2022-09-27T00:39:18.156Z,100309.59
2022-09-27T00:41:24.674Z,100313.09
2022-09-27T00:43:28.322Z,100295.50
2022-09-27T00:45:32.050Z,100300.78
2022-09-27T00:47:43.532Z,100297.19
2022-09-27T00:49:51.051Z,100298.16
2022-09-27T00:51:59.512Z,100295.50
2022-09-27T00:54:03.902Z,100297.19
2022-09-27T00:56:12.936Z,100286.59
2022-09-27T00:58:20.414Z,100282.13
2022-09-27T01:00:24.662Z,100276.81
2022-09-27T01:02:29.009Z,100277.81
2022-09-27T01:04:35.384Z,100283.00
2022-09-27T01:06:39.939Z,100280.22
2022-09-27T01:08:43.864Z,100276.63
2022-09-27T01:11:00.044Z,100276.50
2022-09-27T01:13:14.572Z,100264.97
2022-09-27T01:15:27.325Z,100266.63
2022-09-27T01:17:43.075Z,100264.97
2022-09-27T01:20:16.612Z,100262.31
2022-09-27T01:22:23.512Z,100264.09
2022-09-27T01:25:04.354Z,100257.97
2022-09-27T01:27:29.785Z,100269.28
2022-09-27T01:29:42.982Z,100264.84
2022-09-27T01:31:52.179Z,100259.41
2022-09-27T01:34:05.108Z,100251.34
2022-09-27T01:36:18.220Z,100247.88
2022-09-27T01:38:26.958Z,100243.28
2022-09-27T01:40:37.485Z,100239.69
2022-09-27T01:43:19.662Z,100243.91
2022-09-27T01:45:30.199Z,100227.06
2022-09-27T01:47:48.461Z,100215.47
2022-09-27T01:50:14.938Z,100218.00
2022-09-27T01:52:23.860Z,100220.75
2022-09-27T01:54:35.242Z,100219.94
2022-09-27T01:56:59.167Z,100216.44
2022-09-27T01:59:12.385Z,100220.88
2022-09-27T02:01:24.156Z,100215.59
2022-09-27T02:03:34.442Z,100204.97
2022-09-27T02:06:06.662Z,100201.50
2022-09-27T02:08:36.256Z,100188.38
2022-09-27T02:10:48.590Z,100191.13
2022-09-27T02:12:59.472Z,100199.91
2022-09-27T02:15:08.349Z,100191.97
2022-09-27T02:17:21.576Z,100181.38
2022-09-27T02:19:39.671Z,100186.66
2022-09-27T02:21:55.070Z,100193.66
2022-09-27T02:24:01.315Z,100197.97
2022-09-27T02:26:09.993Z,100191.97
2022-09-27T02:28:24.833Z,100194.63
2022-09-27T02:30:28.655Z,100190.28
2022-09-27T02:32:38.779Z,100187.63
2022-09-27T02:34:46.275Z,100185.84
2022-09-27T02:36:49.757Z,100167.38
2022-09-27T02:38:53.208Z,100169.06
2022-09-27T02:40:58.181Z,100171.00
2022-09-27T02:43:03.843Z,100162.31
2022-09-27T02:45:09.058Z,100165.09
2022-09-27T02:47:35.536Z,100174.00
2022-09-27T02:50:01.407Z,100177.59
2022-09-27T02:52:33.378Z,100178.47
2022-09-27T02:54:46.227Z,100162.56
2022-09-27T02:57:31.807Z,100146.66
2022-09-27T03:00:10.203Z,100163.38
2022-09-27T03:02:35.586Z,100156.31
2022-09-27T03:05:04.914Z,100151.84
2022-09-27T03:07:08.732Z,100151.72
2022-09-27T03:09:18.898Z,100148.09
2022-09-27T03:11:22.532Z,100145.34
2022-09-27T03:13:25.927Z,100148.81
2022-09-27T03:15:29.939Z,100146.16
2022-09-27T03:17:38.289Z,100131.13
2022-09-27T03:20:18.959Z,100136.31
2022-09-27T03:22:27.138Z,100131.97
2022-09-27T03:24:30.570Z,100131.84
2022-09-27T03:26:34.018Z,100132.72
2022-09-27T03:28:37.445Z,100107.88
2022-09-27T03:30:42.261Z,100117.53
2022-09-27T03:32:47.212Z,100102.47
2022-09-27T03:35:30.532Z,100100.78
2022-09-27T03:37:34.696Z,100107.88
2022-09-27T03:39:38.046Z,100109.44
2022-09-27T03:41:42.360Z,100105.84
2022-09-27T03:43:45.841Z,100099.69
2022-09-27T03:45:50.386Z,100099.69
2022-09-27T03:47:54.940Z,100105.72
2022-09-27T03:49:58.688Z,100103.06
2022-09-27T03:52:03.762Z,100110.19
2022-09-27T03:54:07.338Z,100102.09
2022-09-27T03:56:10.964Z,100103.06
2022-09-27T03:58:14.381Z,100095.84
2022-09-27T04:00:18.441Z,100095.84
2022-09-27T04:02:21.908Z,100102.00
2022-09-27T04:04:44.490Z,100099.22
2022-09-27T04:06:48.227Z,100090.44
2022-09-27T04:08:53.350Z,100091.25
2022-09-27T04:10:59.458Z,100089.56
2022-09-27T04:13:03.108Z,100094.16
2022-09-27T04:15:12.387Z,100092.47
2022-09-27T04:17:27.672Z,100086.22
2022-09-27T04:20:00.054Z,100081.03
2022-09-27T04:22:03.682Z,100085.25
2022-09-27T04:24:09.151Z,100092.47
2022-09-27T04:26:13.824Z,100088.13
2022-09-27T04:28:30.294Z,100091.63
2022-09-27T04:30:34.149Z,100090.75
2022-09-27T04:32:49.752Z,100093.53
2022-09-27T04:35:37.335Z,100092.81
2022-09-27T04:37:42.055Z,100075.34
2022-09-27T04:39:46.866Z,100072.81
2022-09-27T04:41:51.691Z,100072.94
2022-09-27T04:43:58.894Z,100070.50
2022-09-27T04:46:02.890Z,100079.44
2022-09-27T04:48:06.373Z,100076.81
2022-09-27T04:50:11.151Z,100078.59
2022-09-27T04:52:15.593Z,100081.34
2022-09-27T04:54:19.331Z,100082.19
2022-09-27T04:56:44.081Z,100075.09
2022-09-27T04:58:47.409Z,100083.75
2022-09-27T05:00:52.689Z,100074.88
2022-09-27T05:03:15.193Z,100066.91
2022-09-27T05:05:29.902Z,100077.38
2022-09-27T05:07:35.631Z,100073.16
2022-09-27T05:09:44.126Z,100069.56
2022-09-27T05:11:49.520Z,100072.22
2022-09-27T05:13:53.281Z,100065.22
2022-09-27T05:15:57.468Z,100079.44
2022-09-27T05:18:18.267Z,100074.16
2022-09-27T05:20:51.257Z,100070.88
2022-09-27T05:23:00.753Z,100074.38
2022-09-27T05:25:04.459Z,100078.00
2022-09-27T05:27:11.585Z,100079.06
2022-09-27T05:29:15.252Z,100079.06
2022-09-27T05:31:25.566Z,100083.88
2022-09-27T05:33:29.885Z,100072.53
2022-09-27T05:35:56.044Z,100073.50
2022-09-27T05:38:06.195Z,100071.91
2022-09-27T05:40:36.579Z,100064.91
2022-09-27T05:42:40.690Z,100073.81
2022-09-27T05:44:48.876Z,100073.81
2022-09-27T05:46:53.388Z,100068.66
2022-09-27T05:48:57.118Z,100072.25
2022-09-27T05:51:00.950Z,100075.13
2022-09-27T05:53:04.878Z,100079.59
2022-09-27T05:55:09.703Z,100063.72
2022-09-27T05:57:13.534Z,100057.34
2022-09-27T05:59:22.003Z,100063.47
2022-09-27T06:01:44.752Z,100067.06
2022-09-27T06:03:55.269Z,100059.88
2022-09-27T06:06:15.797Z,100063.34
2022-09-27T06:08:25.490Z,100050.97
2022-09-27T06:10:30.416Z,100051.19
2022-09-27T06:12:35.497Z,100058.16
2022-09-27T06:14:44.063Z,100051.41
2022-09-27T06:16:54.772Z,100051.41
2022-09-27T06:19:02.120Z,100052.38
2022-09-27T06:21:07.957Z,100038.41
2022-09-27T06:23:13.755Z,100046.38
2022-09-27T06:25:17.808Z,100042.03
2022-09-27T06:27:40.341Z,100042.25
2022-09-27T06:29:51.254Z,100048.41
2022-09-27T06:32:15.495Z,100047.31
2022-09-27T06:34:26.208Z,100041.28
2022-09-27T06:36:30.182Z,100036.84
2022-09-27T06:38:34.247Z,100036.72
2022-09-27T06:40:47.617Z,100041.06
2022-09-27T06:42:51.415Z,100049.72
2022-09-27T06:45:04.947Z,100048.78
2022-09-27T06:47:17.958Z,100049.50
2022-09-27T06:49:31.874Z,100044.09
2022-09-27T06:51:36.856Z,100046.50
2022-09-27T06:53:40.922Z,100044.09
2022-09-27T06:55:45.561Z,100043.97
2022-09-27T06:58:06.840Z,100045.66
2022-09-27T07:00:27.121Z,100049.84
2022-09-27T07:03:01.386Z,100046.13
2022-09-27T07:05:29.619Z,100046.03
2022-09-27T07:07:49.410Z,100047.63
2022-09-27T07:09:53.333Z,100049.19
2022-09-27T07:11:57.798Z,100046.41
2022-09-27T07:14:02.376Z,100045.47
2022-09-27T07:16:08.914Z,100034.63
2022-09-27T07:18:13.858Z,100037.88
2022-09-27T07:20:18.634Z,100042.09
2022-09-27T07:22:22.642Z,100034.88
2022-09-27T07:24:32.543Z,100027.53
2022-09-27T07:26:37.247Z,100033.44
2022-09-27T07:28:45.349Z,100034.16
2022-09-27T07:30:57.409Z,100035.47
2022-09-27T07:33:05.863Z,100051.25
2022-09-27T07:35:11.242Z,100050.28
2022-09-27T07:37:15.109Z,100058.25
2022-09-27T07:39:18.943Z,100046.94
2022-09-27T07:41:22.875Z,100035.34
2022-09-27T07:43:26.739Z,100042.09
2022-09-27T07:45:31.536Z,100046.19
2022-09-27T07:47:46.523Z,100032.59
2022-09-27T07:50:00.216Z,100032.22
2022-09-27T07:52:16.244Z,100040.66
2022-09-27T07:54:45.970Z,100033.19
2022-09-27T07:57:04.281Z,100022.31
2022-09-27T07:59:09.188Z,100024.72
2022-09-27T08:01:13.272Z,100020.00
2022-09-27T08:03:18.733Z,100021.44
2022-09-27T08:05:25.342Z,100030.97
2022-09-27T08:07:30.384Z,100027.25
2022-09-27T08:09:34.449Z,100027.09
2022-09-27T08:11:38.675Z,100035.78
2022-09-27T08:13:44.125Z,100037.34
2022-09-27T08:15:48.923Z,100029.97
2022-09-27T08:17:53.574Z,100033.47
2022-09-27T08:20:24.896Z,100030.69
2022-09-27T08:22:42.540Z,100028.16
2022-09-27T08:24:59.870Z,100039.63
2022-09-27T08:27:21.539Z,100030.69
2022-09-27T08:29:29.069Z,100032.38
2022-09-27T08:31:33.335Z,100025.16
2022-09-27T08:33:41.444Z,100031.16
2022-09-27T08:35:48.832Z,100013.44
2022-09-27T08:37:59.388Z,100029.13
2022-09-27T08:40:05.307Z,100023.69
2022-09-27T08:42:19.589Z,100016.31
2022-09-27T08:44:31.069Z,100008.78
2022-09-27T08:47:04.186Z,100012.75
2022-09-27T08:49:15.835Z,100008.63
2022-09-27T08:51:23.694Z,100007.16
2022-09-27T08:53:34.340Z,100003.13
2022-09-27T08:55:42.281Z,100006.13
2022-09-27T08:57:58.707Z,100016.75
2022-09-27T09:00:07.356Z,100011.56
2022-09-27T09:02:20.539Z,100010.28
2022-09-27T09:04:33.401Z,100004.97
2022-09-27T09:06:44.795Z,100011.22
2022-09-27T09:09:01.878Z,100011.22
2022-09-27T09:11:35.087Z,100015.84
2022-09-27T09:13:55.961Z,100015.13
2022-09-27T09:16:12.022Z,100006.44
2022-09-27T09:18:31.354Z,100011.63
2022-09-27T09:21:05.043Z,100014.28
2022-09-27T09:23:28.402Z,100010.53
2022-09-27T09:25:38.447Z,100016.53
2022-09-27T09:27:50.058Z,100017.16
2022-09-27T09:30:21.004Z,100016.06
2022-09-27T09:32:37.227Z,100011.31
2022-09-27T09:34:44.899Z,100011.03
2022-09-27T09:36:52.705Z,100016.94
2022-09-27T09:39:04.036Z,100011.38
2022-09-27T09:41:13.770Z,100020.78
2022-09-27T09:43:23.110Z,100008.38
2022-09-27T09:45:31.916Z,100010.91
2022-09-27T09:47:44.048Z,100002.78
2022-09-27T09:49:53.566Z,100000.00
2022-09-27T09:52:05.221Z,100002.53
2022-09-27T09:54:21.165Z,99994.69
2022-09-27T09:56:28.567Z,100000.00
2022-09-27T09:58:41.889Z,99999.31
2022-09-27T10:00:52.498Z,99989.78
2022-09-27T10:02:59.743Z,99991.56
2022-09-27T10:05:07.892Z,99993.00
2022-09-27T10:07:13.522Z,99989.09
2022-09-27T10:09:21.276Z,99995.00
2022-09-27T10:11:48.308Z,99998.41
2022-09-27T10:13:56.044Z,99987.78
2022-09-27T10:16:05.646Z,99986.22
2022-09-27T10:18:17.626Z,99987.44
2022-09-27T10:20:31.637Z,99980.44
2022-09-27T10:22:39.938Z,99977.06
2022-09-27T10:24:58.735Z,99973.56
2022-09-27T10:27:42.226Z,99980.72
2022-09-27T10:29:47.435Z,99971.88
2022-09-27T10:31:56.229Z,99962.13
2022-09-27T10:34:08.540Z,99969.94
2022-09-27T10:36:26.476Z,99964.50
2022-09-27T10:38:33.126Z,99969.00
2022-09-27T10:40:44.067Z,99972.47
2022-09-27T10:42:48.785Z,99972.34
2022-09-27T10:44:58.650Z,99967.16
2022-09-27T10:47:23.239Z,99963.78
2022-09-27T10:49:45.749Z,99959.31
2022-09-27T10:52:06.714Z,99952.47
2022-09-27T10:54:22.355Z,99952.19
2022-09-27T10:56:31.367Z,99954.56
2022-09-27T10:58:38.405Z,99946.59
2022-09-27T11:00:56.867Z,99952.66
2022-09-27T11:03:03.053Z,99945.81
2022-09-27T11:05:15.413Z,99936.94
2022-09-27T11:07:23.887Z,99936.00
2022-09-27T11:09:50.940Z,99936.03
2022-09-27T11:12:11.715Z,99935.63
2022-09-27T11:14:25.868Z,99922.22
2022-09-27T11:16:44.126Z,99924.72
2022-09-27T11:19:01.758Z,99920.25
2022-09-27T11:21:18.632Z,99915.78
2022-09-27T11:23:41.421Z,99907.09
2022-09-27T11:26:01.040Z,99896.44
2022-09-27T11:28:16.478Z,99904.88
2022-09-27T11:30:22.912Z,99899.56
2022-09-27T11:33:17.865Z,99892.53
2022-09-27T11:35:35.050Z,99900.25
2022-09-27T11:37:50.954Z,99902.22
2022-09-27T11:40:13.735Z,99891.84
2022-09-27T11:42:41.315Z,99893.09
2022-09-27T11:47:42.773Z,99910.16
2022-09-27T11:50:25.600Z,99918.28
2022-09-27T11:52:40.939Z,99901.31
2022-09-27T11:55:07.717Z,99910.03
2022-09-27T11:57:19.294Z,99906.25
2022-09-27T11:59:52.561Z,99900.81
2022-09-27T12:02:08.083Z,99901.91
2022-09-27T12:04:38.822Z,99897.56
2022-09-27T12:06:54.148Z,99892.69
2022-09-27T12:09:07.521Z,99885.00
2022-09-27T12:11:21.467Z,99886.13
2022-09-27T12:13:34.755Z,99878.97
2022-09-27T12:15:44.538Z,99891.28
2022-09-27T12:17:55.806Z,99892.97
2022-09-27T12:20:05.198Z,99902.50
2022-09-27T12:22:40.548Z,99900.13
2022-09-27T12:24:48.825Z,99892.00
2022-09-27T12:27:23.584Z,99899.72
2022-09-27T12:29:32.372Z,99891.59
2022-09-27T12:31:42.550Z,99896.38
2022-09-27T12:33:59.272Z,99881.09
2022-09-27T12:36:09.682Z,99880.28
2022-09-27T12:38:17.343Z,99883.09
2022-09-27T12:40:23.431Z,99872.44
2022-09-27T12:42:34.027Z,99860.13
2022-09-27T12:44:47.464Z,99873.81
2022-09-27T12:46:58.937Z,99880.66
2022-09-27T12:49:12.792Z,99870.44
2022-09-27T12:51:19.143Z,99865.38
2022-09-27T12:53:32.006Z,99870.16
2022-09-27T12:55:59.019Z,99873.09
2022-09-27T12:58:39.559Z,99870.44
2022-09-27T13:00:56.328Z,99875.31
2022-09-27T13:03:28.434Z,99867.72
2022-09-27T13:06:11.893Z,99870.53
2022-09-27T13:08:50.815Z,99862.97
2022-09-27T13:11:12.526Z,99866.03
2022-09-27T13:13:20.562Z,99861.97
2022-09-27T13:15:29.330Z,99863.06
2022-09-27T13:17:51.913Z,99864.88
2022-09-27T13:20:48.477Z,99865.00
2022-09-27T13:24:01.046Z,99859.84
2022-09-27T13:26:26.218Z,99873.13
2022-09-27T13:28:58.527Z,99862.22
2022-09-27T13:31:14.071Z,99867.38
2022-09-27T13:33:36.405Z,99856.91
2022-09-27T13:35:41.409Z,99847.97
2022-09-27T13:37:57.245Z,99847.69
2022-09-27T13:40:24.599Z,99853.59
2022-09-27T13:42:56.191Z,99860.44
2022-09-27T13:45:21.762Z,99858.75
2022-09-27T13:47:33.598Z,99856.09
2022-09-27T13:49:42.089Z,99854.41
2022-09-27T13:51:51.190Z,99865.03
2022-09-27T13:54:06.691Z,99854.69
2022-09-27T13:56:56.438Z,99856.75
2022-09-27T13:59:03.244Z,99846.28
2022-09-27T14:01:43.915Z,99855.22
2022-09-27T14:03:49.735Z,99854.97
2022-09-27T14:05:57.145Z,99842.50
2022-09-27T14:08:04.145Z,99852.03
2022-09-27T14:10:15.743Z,99853.00
2022-09-27T14:12:22.719Z,99853.84
2022-09-27T14:14:31.616Z,99865.03
2022-09-27T14:16:37.976Z,99853.59
2022-09-27T14:18:51.192Z,99853.59
2022-09-27T14:21:18.201Z,99857.78
2022-09-27T14:23:34.197Z,99847.16
2022-09-27T14:25:47.770Z,99846.44
2022-09-27T14:27:52.266Z,99835.66
2022-09-27T14:30:15.628Z,99825.91
2022-09-27T14:32:23.556Z,99836.53
2022-09-27T14:34:33.663Z,99833.16
2022-09-27T14:36:56.712Z,99843.78
2022-09-27T14:39:03.617Z,99832.59
2022-09-27T14:41:16.080Z,99823.06
2022-09-27T14:43:22.550Z,99827.44
2022-09-27T14:45:36.762Z,99832.47
2022-09-27T14:47:46.691Z,99828.13
2022-09-27T14:49:52.510Z,99821.84
2022-09-27T14:51:59.211Z,99819.31
2022-09-27T14:54:05.711Z,99824.50
2022-09-27T14:56:18.467Z,99830.91
2022-09-27T14:58:46.013Z,99826.56
2022-09-27T15:00:49.892Z,99824.78
2022-09-27T15:02:56.676Z,99814.13
2022-09-27T15:05:02.977Z,99813.13
2022-09-27T15:07:07.822Z,99827.28
2022-09-27T15:09:15.139Z,99819.44
2022-09-27T15:11:20.683Z,99823.91
2022-09-27T15:13:25.105Z,99817.75
2022-09-27T15:15:32.921Z,99815.66
2022-09-27T15:17:44.695Z,99804.91
2022-09-27T15:20:02.534Z,99823.53
2022-09-27T15:22:33.363Z,99827.84
2022-09-27T15:24:39.040Z,99828.56
2022-09-27T15:26:47.113Z,99820.31
2022-09-27T15:28:52.623Z,99814.72
2022-09-27T15:30:58.420Z,99803.94
2022-09-27T15:33:03.788Z,99802.97
2022-09-27T15:35:10.279Z,99809.13
2022-09-27T15:37:27.966Z,99819.88
2022-09-27T15:39:35.119Z,99818.78
2022-09-27T15:42:13.545Z,99809.13
2022-09-27T15:44:39.474Z,99810.25
2022-09-27T15:46:44.340Z,99809.38
2022-09-27T15:48:48.570Z,99815.81
2022-09-27T15:50:53.247Z,99815.28
2022-09-27T15:52:57.693Z,99817.50
2022-09-27T15:55:01.502Z,99817.75
2022-09-27T15:57:07.258Z,99820.66
2022-09-27T15:59:21.029Z,99819.97
2022-09-27T16:01:24.915Z,99827.22
2022-09-27T16:03:29.292Z,99821.09
2022-09-27T16:05:33.401Z,99823.16
2022-09-27T16:07:37.258Z,99827.06
2022-09-27T16:09:41.494Z,99820.34
2022-09-27T16:11:45.328Z,99818.94
2022-09-27T16:13:50.539Z,99817.28
2022-09-27T16:15:55.956Z,99816.78
2022-09-27T16:18:00.378Z,99815.09
2022-09-27T16:20:04.317Z,99819.44
2022-09-27T16:22:07.819Z,99828.38
2022-09-27T16:24:12.456Z,99820.56
2022-09-27T16:26:16.115Z,99815.25
2022-09-27T16:28:20.131Z,99820.97
2022-09-27T16:30:23.933Z,99822.91
2022-09-27T16:32:29.401Z,99821.47
2022-09-27T16:34:33.408Z,99818.97
2022-09-27T16:36:37.785Z,99818.38
2022-09-27T16:38:41.771Z,99821.31
2022-09-27T16:40:45.676Z,99815.31
2022-09-27T16:42:50.574Z,99813.75
2022-09-27T16:44:55.378Z,99812.47
2022-09-27T16:46:59.387Z,99810.19
2022-09-27T16:49:04.635Z,99809.59
2022-09-27T16:51:29.846Z,99814.34
2022-09-27T16:53:34.009Z,99817.13
2022-09-27T16:55:38.241Z,99815.59
2022-09-27T16:57:42.354Z,99822.81
2022-09-27T16:59:46.323Z,99818.63
2022-09-27T17:01:50.213Z,99816.22
2022-09-27T17:03:57.449Z,99820.84
2022-09-27T17:06:05.431Z,99821.81
2022-09-27T17:08:09.559Z,99818.19
2022-09-27T17:10:13.681Z,99818.41
2022-09-27T17:12:18.325Z,99818.41
2022-09-27T17:14:22.831Z,99819.16
2022-09-27T17:16:27.306Z,99820.38
2022-09-27T17:18:31.086Z,99814.25
2022-09-27T17:20:35.348Z,99819.56
2022-09-27T17:22:41.117Z,99818.69
2022-09-27T17:24:45.326Z,99816.16
2022-09-27T17:26:49.520Z,99814.63
2022-09-27T17:28:55.207Z,99818.13
2022-09-27T17:31:05.326Z,99825.34
2022-09-27T17:33:09.534Z,99828.16
2022-09-27T17:35:13.480Z,99825.50
2022-09-27T17:37:17.538Z,99831.75
2022-09-27T17:39:23.623Z,99833.72
2022-09-27T17:41:29.166Z,99832.84
2022-09-27T17:43:34.210Z,99837.59
2022-09-27T17:45:38.120Z,99837.59
2022-09-27T17:48:00.203Z,99829.75
2022-09-27T17:50:21.139Z,99837.00
2022-09-27T17:52:27.008Z,99836.28
2022-09-27T17:54:32.552Z,99835.72
2022-09-27T17:56:39.498Z,99843.78
2022-09-27T17:58:48.191Z,99840.28
2022-09-27T18:00:55.703Z,99844.75
2022-09-27T18:03:01.120Z,99840.53
2022-09-27T18:05:05.689Z,99844.16
2022-09-27T18:07:10.360Z,99843.19
2022-09-27T18:09:16.310Z,99842.50
2022-09-27T18:11:25.640Z,99838.03
2022-09-27T18:13:31.607Z,99845.84
2022-09-27T18:15:37.886Z,99856.44
2022-09-27T18:17:43.745Z,99859.25
2022-09-27T18:19:48.624Z,99864.66
2022-09-27T18:21:52.640Z,99870.94
2022-09-27T18:23:58.440Z,99867.59
2022-09-27T18:26:09.706Z,99859.72
2022-09-27T18:28:15.392Z,99869.50
2022-09-27T18:30:20.002Z,99861.53
2022-09-27T18:32:23.983Z,99859.03
2022-09-27T18:34:27.792Z,99855.78
2022-09-27T18:36:33.580Z,99856.88
2022-09-27T18:38:37.339Z,99853.25
2022-09-27T18:40:55.568Z,99860.38
2022-09-27T18:42:59.786Z,99864.13
2022-09-27T18:45:06.521Z,99863.38
2022-09-27T18:47:10.507Z,99867.84
2022-09-27T18:49:16.228Z,99872.34
2022-09-27T18:51:22.479Z,99868.81
2022-09-27T18:53:27.355Z,99877.50
2022-09-27T18:55:31.924Z,99877.50
2022-09-27T18:57:37.926Z,99877.50
2022-09-27T18:59:42.221Z,99877.50
2022-09-27T19:01:47.897Z,99885.47
2022-09-27T19:03:51.990Z,99876.63
2022-09-27T19:05:56.358Z,99889.91
2022-09-27T19:08:00.013Z,99888.09
2022-09-27T19:10:05.484Z,99881.25
2022-09-27T19:12:09.119Z,99890.03
2022-09-27T19:14:18.411Z,99896.41
2022-09-27T19:16:23.173Z,99899.19
2022-09-27T19:18:29.848Z,99903.66
2022-09-27T19:20:34.727Z,99902.09
2022-09-27T19:22:38.767Z,99910.06
2022-09-27T19:24:42.604Z,99910.06
2022-09-27T19:26:46.251Z,99908.38
2022-09-27T19:28:50.428Z,99901.38
2022-09-27T19:30:55.190Z,99914.75
2022-09-27T19:32:59.445Z,99912.09
2022-09-27T19:35:05.703Z,99916.69
2022-09-27T19:37:09.537Z,99928.13
2022-09-27T19:39:13.603Z,99933.56
2022-09-27T19:41:18.714Z,99932.72
2022-09-27T19:43:22.722Z,99916.94
2022-09-27T19:45:26.620Z,99917.78
2022-09-27T19:47:30.477Z,99917.16
2022-09-27T19:49:34.750Z,99917.16
2022-09-27T19:51:40.329Z,99917.31
2022-09-27T19:53:45.031Z,99914.78
2022-09-27T19:55:49.146Z,99921.91
2022-09-27T19:57:53.273Z,99920.47
2022-09-27T19:59:57.299Z,99922.38
2022-09-27T20:02:01.243Z,99932.97
2022-09-27T20:04:05.229Z,99934.91
2022-09-27T20:06:11.549Z,99938.66
2022-09-27T20:08:16.952Z,99943.22
2022-09-27T20:10:21.126Z,99939.00
2022-09-27T20:12:25.107Z,99944.41
2022-09-27T20:14:29.142Z,99945.38
2022-09-27T20:16:36.065Z,99947.41
2022-09-27T20:18:43.698Z,99949.31
2022-09-27T20:20:47.497Z,99948.84
2022-09-27T20:22:52.031Z,99956.06
2022-09-27T20:24:57.779Z,99955.22
2022-09-27T20:27:01.728Z,99957.88
2022-09-27T20:29:06.920Z,99957.03
2022-09-27T20:31:13.134Z,99957.97
2022-09-27T20:33:34.401Z,99962.56
2022-09-27T20:35:38.436Z,99955.69
2022-09-27T20:37:42.818Z,99955.81
2022-09-27T20:39:46.515Z,99953.41
2022-09-27T20:41:52.584Z,99944.72
2022-09-27T20:43:58.749Z,99941.38
2022-09-27T20:46:03.362Z,99945.94
2022-09-27T20:48:07.611Z,99952.19
2022-09-27T20:50:12.856Z,99960.25
2022-09-27T20:52:17.139Z,99960.38
2022-09-27T20:54:21.042Z,99963.03
2022-09-27T20:56:27.030Z,99959.53
2022-09-27T20:58:33.428Z,99957.97
2022-09-27T21:00:37.415Z,99957.97
2022-09-27T21:02:41.386Z,99964.22
2022-09-27T21:04:45.272Z,99965.16
2022-09-27T21:06:49.488Z,99974.22
2022-09-27T21:08:53.356Z,99973.34
2022-09-27T21:10:57.109Z,99980.47
2022-09-27T21:13:01.467Z,99975.28
2022-09-27T21:15:09.548Z,99979.00
2022-09-27T21:17:14.798Z,99976.47
2022-09-27T21:19:19.559Z,99981.78
2022-09-27T21:21:25.308Z,99985.25
2022-09-27T21:23:31.038Z,99980.09
2022-09-27T21:25:35.532Z,99982.00
2022-09-27T21:27:39.357Z,99975.03
2022-09-27T21:29:45.628Z,99967.19
2022-09-27T21:31:51.330Z,99967.31
2022-09-27T21:33:59.310Z,99972.59
2022-09-27T21:36:03.680Z,99978.75
2022-09-27T21:38:07.626Z,99983.31
2022-09-27T21:40:12.348Z,99982.34
2022-09-27T21:42:16.501Z,99987.66
2022-09-27T21:44:20.785Z,99991.88
2022-09-27T21:46:26.848Z,99982.22
2022-09-27T21:48:32.764Z,99980.31
2022-09-27T21:50:36.666Z,99986.34
2022-09-27T21:52:40.580Z,99986.22
2022-09-27T21:54:44.384Z,99988.75
2022-09-27T21:56:48.651Z,99994.03
2022-09-27T21:58:52.976Z,99994.91
2022-09-27T22:00:57.133Z,99999.22
2022-09-27T22:03:00.765Z,99992.13
2022-09-27T22:05:06.411Z,99990.31
2022-09-27T22:07:10.374Z,99997.41
2022-09-27T22:09:17.095Z,100002.72
2022-09-27T22:11:23.123Z,100001.97
2022-09-27T22:13:27.078Z,100001.16
2022-09-27T22:15:30.717Z,100001.97
2022-09-27T22:17:34.655Z,100002.84
2022-09-27T22:19:38.485Z,99998.50
2022-09-27T22:21:43.668Z,99999.31
2022-09-27T22:23:47.469Z,99995.72
2022-09-27T22:25:51.170Z,100001.03
2022-09-27T22:27:54.865Z,100001.03
2022-09-27T22:29:58.803Z,100001.84
2022-09-27T22:32:04.019Z,99998.50
2022-09-27T22:34:11.122Z,99996.91
2022-09-27T22:36:15.049Z,99994.50
2022-09-27T22:38:20.514Z,100006.16
2022-09-27T22:40:24.469Z,100013.38
2022-09-27T22:42:28.448Z,100016.13
2022-09-27T22:44:33.770Z,100011.09
2022-09-27T22:46:37.869Z,100012.28
2022-09-27T22:48:42.611Z,100009.84
2022-09-27T22:50:46.613Z,100010.09
2022-09-27T22:52:50.311Z,100005.88
2022-09-27T22:54:55.859Z,100017.53
2022-09-27T22:56:59.653Z,100007.06
2022-09-27T22:59:03.397Z,100010.78
2022-09-27T23:01:10.898Z,100009.31
2022-09-27T23:03:14.167Z,100008.69
2022-09-27T23:05:17.677Z,100003.63
2022-09-27T23:07:21.014Z,100009.97
2022-09-27T23:09:24.827Z,100020.56
2022-09-27T23:11:31.441Z,100019.81
2022-09-27T23:13:35.597Z,100006.59
2022-09-27T23:15:38.938Z,100010.09
2022-09-27T23:17:42.517Z,100010.22
2022-09-27T23:19:45.901Z,100011.88
2022-09-27T23:21:50.196Z,99999.63
2022-09-27T23:23:55.369Z,100004.06
2022-09-27T23:26:00.249Z,100011.16
2022-09-27T23:28:04.919Z,100007.06
2022-09-27T23:30:09.094Z,100003.66
2022-09-27T23:32:12.824Z,100008.25
2022-09-27T23:34:16.320Z,100004.03
2022-09-27T23:36:22.699Z,100003.19
2022-09-27T23:38:25.975Z,99995.25
2022-09-27T23:40:29.389Z,100002.44
2022-09-27T23:42:32.944Z,100003.38
2022-09-27T23:44:37.996Z,100007.97
2022-09-27T23:46:41.536Z,100007.97
2022-09-27T23:48:45.084Z,100005.44
2022-09-27T23:50:49.398Z,99999.28
2022-09-27T23:52:53.032Z,99990.75
2022-09-27T23:54:56.328Z,99996.16
2022-09-27T23:56:59.889Z,99998.88
2022-09-27T23:59:03.229Z,99993.69
